This is the latest recevied weather packets stored in our database for station/object N4LLZ-13. If no packets are shown the sender has not sent any weather packets the latest 10 day(s).
| Time | Temp. | Humidity | Pressure | Rain* | Wind** | Luminosity | Snow |
|---|---|---|---|---|---|---|---|
| 1777581122 | 22.22° C | 53% | 1009.5 hPa | 0 mm | - | - | - |
| 1777580821 | 22.22° C | 53% | 1009.5 hPa | 0 mm | - | - | - |
| 1777580219 | 22.22° C | 53% | 1009.5 hPa | 0 mm | - | - | - |
| 1777579918 | 22.22° C | 52% | 1009.5 hPa | 0 mm | - | - | - |
| 1777579316 | 22.22° C | 52% | 1009.5 hPa | 0 mm | - | - | - |
| 1777579016 | 21.67° C | 53% | 1009.5 hPa | 0 mm | - | - | - |
| 1777578715 | 21.67° C | 52% | 1009.7 hPa | 0 mm | - | - | - |
| 1777577812 | 22.78° C | 50% | 1009.5 hPa | 0 mm | - | - | - |
| 1777577511 | 22.78° C | 51% | 1009.5 hPa | 0 mm | - | - | - |
| 1777576007 | 22.78° C | 50% | 1009.5 hPa | 0 mm | - | - | - |
| 1777575706 | 22.78° C | 50% | 1009.5 hPa | 0 mm | - | - | - |
| 1777575405 | 22.22° C | 50% | 1009.5 hPa | 0 mm | - | - | - |
| 1777573299 | 21.67° C | 52% | 1009.3 hPa | 0 mm | - | - | - |
| 1777572998 | 21.11° C | 55% | 1009.3 hPa | 0 mm | - | - | - |
| 1777572697 | 21.67° C | 53% | 1009.3 hPa | 0 mm | - | - | - |
| 1777570892 | 20° C | 61% | 1010 hPa | 0 mm | - | - | - |
| 1777570290 | 20° C | 61% | 1010.2 hPa | 0 mm | - | - | - |
| 1777569989 | 19.44° C | 61% | 1010.2 hPa | 0 mm | - | - | - |
| 1777567281 | 18.89° C | 65% | 1010.7 hPa | 0 mm | - | - | - |
| 1777566980 | 18.33° C | 67% | 1010.8 hPa | 0 mm | - | - | - |
| 1777566378 | 17.78° C | 69% | 1010.7 hPa | 0 mm | - | - | - |
| 1777565175 | 17.78° C | 70% | 1010.9 hPa | 0 mm | - | - | - |
| 1777564573 | 17.78° C | 71% | 1011 hPa | 0 mm | - | - | - |
| 1777564272 | 17.78° C | 71% | 1010.9 hPa | 0 mm | - | - | - |
| 1777563369 | 17.78° C | 70% | 1010.8 hPa | 0 mm | - | - | - |
* Rain latest hour (hover to see other rain measurements)
** Current wind speed in m/s (hover to see current wind gust speed)